createdAt,value
2023-02-18T00:01:14.551Z,12.40
2023-02-18T00:06:23.663Z,12.50
2023-02-18T00:11:25.481Z,12.49
2023-02-18T00:16:30.733Z,12.47
2023-02-18T00:21:34.066Z,12.40
2023-02-18T00:26:35.873Z,12.23
2023-02-18T00:31:39.342Z,12.24
2023-02-18T00:36:40.921Z,12.25
2023-02-18T00:41:43.195Z,12.19
2023-02-18T00:46:44.686Z,12.26
2023-02-18T00:51:46.109Z,12.25
2023-02-18T00:56:47.387Z,12.27
2023-02-18T01:01:48.758Z,12.27
2023-02-18T01:06:50.077Z,12.17
2023-02-18T01:11:51.536Z,12.18
2023-02-18T01:16:52.863Z,12.05
2023-02-18T01:21:54.199Z,12.13
2023-02-18T01:26:55.516Z,12.15
2023-02-18T01:31:56.918Z,12.08
2023-02-18T01:36:58.245Z,12.07
2023-02-18T01:41:59.869Z,12.07
2023-02-18T01:47:01.488Z,12.03
2023-02-18T01:52:11.952Z,11.98
2023-02-18T01:57:18.123Z,11.98
2023-02-18T02:02:22.539Z,12.03
2023-02-18T02:07:26.702Z,11.98
2023-02-18T02:13:12.984Z,11.83
2023-02-18T02:18:32.790Z,11.92
2023-02-18T02:24:01.626Z,11.99
2023-02-18T02:29:15.082Z,11.94
2023-02-18T02:34:35.172Z,11.86
2023-02-18T02:39:48.698Z,11.95
2023-02-18T02:45:01.168Z,11.93
2023-02-18T02:50:09.567Z,11.90
2023-02-18T02:55:13.040Z,11.91
2023-02-18T03:00:17.256Z,11.98
2023-02-18T03:05:37.525Z,11.90
2023-02-18T03:10:45.316Z,11.81
2023-02-18T03:15:56.912Z,11.75
2023-02-18T03:21:02.946Z,11.71
2023-02-18T03:26:06.775Z,11.67
2023-02-18T03:31:17.149Z,11.70
2023-02-18T03:36:21.073Z,11.71
2023-02-18T03:41:22.563Z,11.65
2023-02-18T03:46:23.985Z,11.78
2023-02-18T03:51:25.421Z,11.75
2023-02-18T03:56:26.913Z,11.74
2023-02-18T04:01:28.417Z,11.64
2023-02-18T04:06:30.944Z,11.65
2023-02-18T04:11:32.242Z,11.70
2023-02-18T04:16:33.716Z,11.66
2023-02-18T04:21:35.199Z,11.64
2023-02-18T04:26:36.506Z,11.56
2023-02-18T04:31:37.958Z,11.66
2023-02-18T04:36:39.365Z,11.60
2023-02-18T04:41:40.752Z,11.55
2023-02-18T04:46:42.775Z,11.48
2023-02-18T04:51:44.126Z,11.66
2023-02-18T04:56:45.551Z,11.55
2023-02-18T05:01:46.979Z,11.60
2023-02-18T05:06:48.444Z,11.49
2023-02-18T05:11:50.058Z,11.66
2023-02-18T05:16:51.525Z,11.53
2023-02-18T05:21:52.835Z,11.52
2023-02-18T05:26:54.526Z,11.42
2023-02-18T05:31:56.094Z,11.29
2023-02-18T05:36:57.545Z,11.22
2023-02-18T05:41:58.891Z,11.20
2023-02-18T05:47:02.718Z,11.26
2023-02-18T05:52:04.649Z,11.26
2023-02-18T05:57:06.055Z,11.32
2023-02-18T06:02:07.501Z,11.35
2023-02-18T06:07:11.052Z,11.30
2023-02-18T06:12:12.737Z,11.37
2023-02-18T06:17:15.109Z,11.28
2023-02-18T06:22:16.591Z,11.38
2023-02-18T06:27:18.084Z,11.40
2023-02-18T06:32:19.467Z,11.30
2023-02-18T06:37:20.963Z,11.32
2023-02-18T06:42:22.289Z,11.34
2023-02-18T06:47:23.920Z,11.33
2023-02-18T06:52:25.549Z,11.41
2023-02-18T06:57:26.954Z,11.28
2023-02-18T07:02:28.513Z,11.41
2023-02-18T07:07:29.970Z,11.41
2023-02-18T07:12:31.336Z,11.43
2023-02-18T07:17:32.708Z,11.44
2023-02-18T07:22:34.069Z,11.40
2023-02-18T07:27:35.415Z,11.37
2023-02-18T07:32:36.918Z,11.36
2023-02-18T07:37:38.240Z,11.39
2023-02-18T07:42:39.591Z,11.35
2023-02-18T07:47:42.167Z,11.52
2023-02-18T07:52:43.536Z,11.52
2023-02-18T07:57:57.273Z,11.54
2023-02-18T08:02:58.626Z,11.51
2023-02-18T08:08:00.000Z,11.40
2023-02-18T08:13:01.332Z,11.48
2023-02-18T08:18:02.884Z,11.40
2023-02-18T08:23:05.034Z,11.44
2023-02-18T08:28:06.656Z,11.49
2023-02-18T08:33:07.976Z,11.61
2023-02-18T08:38:09.559Z,11.77
2023-02-18T08:43:11.178Z,11.87
2023-02-18T08:48:19.279Z,11.94
2023-02-18T08:53:22.054Z,11.88
2023-02-18T08:58:23.346Z,11.83
2023-02-18T09:03:24.796Z,11.77
2023-02-18T09:08:28.212Z,11.76
2023-02-18T09:13:30.072Z,11.78
2023-02-18T09:18:32.464Z,11.86
2023-02-18T09:23:34.270Z,12.02
2023-02-18T09:28:36.742Z,12.17
2023-02-18T09:33:45.700Z,12.18
2023-02-18T09:38:48.032Z,12.06
2023-02-18T09:43:53.092Z,11.93
2023-02-18T09:48:55.373Z,11.93
2023-02-18T09:53:56.741Z,11.99
2023-02-18T09:59:03.059Z,11.94
2023-02-18T10:04:19.408Z,11.95
2023-02-18T10:09:23.681Z,12.04
2023-02-18T10:14:26.135Z,11.80
2023-02-18T10:19:34.244Z,11.93
2023-02-18T10:24:42.733Z,11.99
2023-02-18T10:29:44.024Z,12.10
2023-02-18T10:34:55.040Z,12.12
2023-02-18T10:40:22.571Z,12.06
2023-02-18T10:45:26.857Z,12.19
2023-02-18T10:50:41.706Z,12.22
2023-02-18T10:55:46.653Z,12.20
2023-02-18T11:00:48.054Z,12.31
2023-02-18T11:05:55.525Z,12.35
2023-02-18T11:10:58.128Z,12.36
2023-02-18T11:16:06.672Z,12.22
2023-02-18T11:21:36.592Z,12.20
2023-02-18T11:26:39.993Z,12.26
2023-02-18T11:31:50.588Z,12.47
2023-02-18T11:36:53.124Z,12.52
2023-02-18T11:42:06.125Z,12.42
2023-02-18T11:47:40.597Z,12.19
2023-02-18T11:52:47.769Z,12.12
2023-02-18T11:57:56.419Z,12.01
2023-02-18T12:03:00.509Z,12.03
2023-02-18T12:08:18.768Z,11.99
2023-02-18T12:13:27.806Z,12.00
2023-02-18T12:18:29.081Z,12.06
2023-02-18T12:23:47.948Z,12.09
2023-02-18T12:29:01.591Z,12.10
2023-02-18T12:34:24.299Z,12.22
2023-02-18T12:39:44.530Z,12.26
2023-02-18T12:45:14.239Z,12.15
2023-02-18T12:50:36.854Z,12.18
2023-02-18T12:55:47.775Z,12.22
2023-02-18T13:01:23.459Z,12.18
2023-02-18T13:06:59.057Z,12.14
2023-02-18T13:12:10.975Z,12.10
2023-02-18T13:17:15.685Z,12.19
2023-02-18T13:22:20.353Z,12.20
2023-02-18T13:27:26.384Z,12.23
2023-02-18T13:32:39.777Z,12.15
2023-02-18T13:37:47.685Z,12.16
2023-02-18T13:42:52.933Z,12.01
2023-02-18T13:47:55.242Z,12.08
2023-02-18T13:53:09.296Z,12.07
2023-02-18T13:58:19.551Z,12.06
2023-02-18T14:03:42.374Z,11.91
2023-02-18T14:08:44.794Z,11.82
2023-02-18T14:13:53.682Z,11.77
2023-02-18T14:18:59.133Z,11.84
2023-02-18T14:24:06.042Z,11.92
2023-02-18T14:29:27.425Z,11.95
2023-02-18T14:34:50.252Z,12.05
2023-02-18T14:40:10.582Z,12.02
2023-02-18T14:45:36.822Z,11.89
2023-02-18T14:50:43.978Z,11.90
2023-02-18T14:55:48.751Z,11.99
2023-02-18T15:00:52.246Z,11.96
2023-02-18T15:05:53.656Z,11.96
2023-02-18T15:11:05.363Z,11.98
2023-02-18T15:16:15.570Z,11.97
2023-02-18T15:21:25.702Z,12.17
2023-02-18T15:26:27.084Z,12.09
2023-02-18T15:31:35.546Z,11.95
2023-02-18T15:36:37.158Z,11.75
2023-02-18T15:41:39.375Z,11.96
2023-02-18T15:46:40.909Z,11.91
2023-02-18T15:51:43.504Z,11.90
2023-02-18T15:56:49.646Z,11.91
2023-02-18T16:02:16.415Z,11.97
2023-02-18T16:07:52.417Z,11.85
2023-02-18T16:13:00.238Z,11.82
2023-02-18T16:18:01.628Z,11.76
2023-02-18T16:23:14.335Z,11.72
2023-02-18T16:28:31.015Z,11.73
2023-02-18T16:33:32.898Z,11.70
2023-02-18T16:38:34.318Z,11.68
2023-02-18T16:43:36.000Z,11.66
2023-02-18T16:48:43.042Z,11.57
2023-02-18T16:53:45.331Z,11.64
2023-02-18T16:58:46.861Z,11.58
2023-02-18T17:03:48.976Z,11.48
2023-02-18T17:08:50.786Z,11.55
2023-02-18T17:13:54.181Z,11.54
2023-02-18T17:18:55.512Z,11.55
2023-02-18T17:23:56.858Z,11.53
2023-02-18T17:29:00.412Z,11.44
2023-02-18T17:34:06.446Z,11.41
2023-02-18T17:39:15.492Z,11.34
2023-02-18T17:44:19.149Z,11.27
2023-02-18T17:49:22.221Z,11.25
2023-02-18T17:54:26.081Z,11.16
2023-02-18T17:59:29.778Z,11.25
2023-02-18T18:04:31.344Z,11.25
2023-02-18T18:09:33.406Z,11.37
2023-02-18T18:14:34.693Z,11.40
2023-02-18T18:19:37.926Z,11.38
2023-02-18T18:24:39.269Z,11.26
2023-02-18T18:29:40.625Z,11.20
2023-02-18T18:34:44.178Z,11.18
2023-02-18T18:39:45.839Z,11.28
2023-02-18T18:44:47.175Z,11.28
2023-02-18T18:49:48.533Z,11.26
2023-02-18T18:54:50.167Z,11.29
2023-02-18T18:59:52.099Z,11.29
2023-02-18T19:04:53.462Z,11.30
2023-02-18T19:09:54.763Z,11.29
2023-02-18T19:14:56.071Z,11.05
2023-02-18T19:19:57.425Z,11.25
2023-02-18T19:24:58.868Z,11.17
2023-02-18T19:30:00.259Z,11.09
2023-02-18T19:35:01.706Z,11.11
2023-02-18T19:40:05.796Z,11.22
2023-02-18T19:45:07.789Z,11.49
2023-02-18T19:50:13.074Z,11.62
2023-02-18T19:55:14.563Z,11.30
2023-02-18T20:00:17.742Z,11.23
2023-02-18T20:05:19.406Z,11.10
2023-02-18T20:10:22.486Z,11.15
2023-02-18T20:15:24.279Z,11.02
2023-02-18T20:20:28.153Z,11.02
2023-02-18T20:25:29.444Z,11.12
2023-02-18T20:30:30.914Z,11.10
2023-02-18T20:35:32.273Z,11.16
2023-02-18T20:40:33.635Z,11.04
2023-02-18T20:45:35.372Z,11.08
2023-02-18T20:50:36.789Z,11.07
2023-02-18T20:55:38.308Z,11.08
2023-02-18T21:00:40.615Z,11.05
2023-02-18T21:05:41.931Z,10.99
2023-02-18T21:10:43.300Z,10.99
2023-02-18T21:15:44.804Z,11.00
2023-02-18T21:20:47.209Z,11.10
2023-02-18T21:25:48.565Z,11.08
2023-02-18T21:30:49.958Z,11.00
2023-02-18T21:35:51.599Z,10.89
2023-02-18T21:40:52.973Z,10.91
2023-02-18T21:45:54.330Z,10.96
2023-02-18T21:51:00.374Z,10.92
2023-02-18T21:56:10.029Z,10.91
2023-02-18T22:01:11.769Z,11.02
2023-02-18T22:06:14.194Z,11.00
2023-02-18T22:11:15.504Z,10.92
2023-02-18T22:16:17.027Z,10.89
2023-02-18T22:21:20.799Z,10.91
2023-02-18T22:26:23.066Z,10.83
2023-02-18T22:31:27.821Z,10.86
2023-02-18T22:36:29.611Z,10.78
2023-02-18T22:41:33.144Z,10.77
2023-02-18T22:46:36.574Z,10.67
2023-02-18T22:51:40.794Z,10.55
2023-02-18T22:56:42.975Z,10.66
2023-02-18T23:01:50.357Z,10.70
2023-02-18T23:06:51.909Z,10.65
2023-02-18T23:11:57.594Z,10.63
2023-02-18T23:17:13.623Z,10.64
2023-02-18T23:22:18.747Z,10.65
2023-02-18T23:27:21.298Z,10.46
2023-02-18T23:32:22.806Z,10.50
2023-02-18T23:37:44.408Z,10.59
2023-02-18T23:42:45.776Z,10.44
2023-02-18T23:47:47.221Z,10.59
2023-02-18T23:52:50.051Z,10.55
2023-02-18T23:57:51.776Z,10.47
